Meteo Giornale » Osservazioni meteo Italia » Lecce

ore: 07:55 - Osservazioni Meteo Lecce
Lat. 40° 14' N Lon. 18° 9' E Alt. 48 metri s.l.m.

sereno Europe/Rome

25 °C

Sereno

Temp. 24 Ore

20 °C

29 °C

Sud-Ovest

9.3 Km/h

Dew point 20 °C

Umidità 73 %

Visibilità  10 Km

Il sole sorge alle ore 05:16

Il sole tramonta alle ore 20:22

Data e Ora Cielo e Fenomeni T °C DP °C Um. % Pres. hPa Vis. km Vento km/h
Oggi h: 07:55 sereno Sereno 25 20 73 1014 10 SO 9.3
Oggi h: 06:55 sereno Sereno 22 21 94 1013 10 N 5.5
Oggi h: 05:55 sereno Sereno 20 19 93 1013 10 N 5.5
Oggi h: 04:55 sereno Sereno 20 19 93 1013 10 S 7.4
Oggi h: 03:55 sereno Sereno 20 19 93 1014 10 N 5.5
Oggi h: 02:55 sereno Sereno 21 20 94 1014 10 N 0
Oggi h: 01:55 sereno Sereno 21 20 94 1014 10 N 0
Oggi h: 00:55 sereno Sereno 21 19 88 1014 10 N 0
Ieri h: 23:55 sereno Sereno 21 19 88 1014 10 N 0
Ieri h: 22:55 sereno Sereno 21 18 82 1015 10 N 3.7
Ieri h: 21:55 sereno Sereno 23 18 73 1015 10 N 5.5
Ieri h: 20:55 poco_nuvoloso Poco Nuvoloso 25 18 65 1014 10 N 5.5
Ieri h: 19:55 poco_nuvoloso Poco Nuvoloso 26 18 61 1014 10 N 3.7
Ieri h: 18:55 coperto_temporali Temporale 26 19 65 1014 10 N 9.3
Ieri h: 16:55 poco_nuvoloso Poco Nuvoloso 28 20 61 1014 10 N 9.3
Ieri h: 15:55 poco_nuvoloso Poco Nuvoloso 27 20 65 1015 10 O 9.3
Ieri h: 12:55 poco_nuvoloso Poco Nuvoloso 29 18 51 1016 10 N/NE 14.8
Ieri h: 11:55 poco_nuvoloso Poco Nuvoloso 28 18 54 1017 10 N 13
Ieri h: 10:55 nuvoloso Nuvoloso 27 19 61 1017 10 N 13
Ieri h: 09:55 nuvoloso Nuvoloso 25 22 83 1016 10 N 11.1